sensor_id;sensor_type;location;lat;lon;timestamp;pressure;altitude;pressure_sealevel;temperature;humidity
10638;BME280;47007;49.252;8.904;2023-07-31T00:00:15;99663.78;;;19.26;100.00
10638;BME280;47007;49.252;8.904;2023-07-31T00:00:56;99668.41;;;19.31;100.00
10638;BME280;47007;49.252;8.904;2023-07-31T00:01:38;99664.09;;;19.30;100.00
10638;BME280;47007;49.252;8.904;2023-07-31T00:02:20;99655.97;;;19.25;100.00
10638;BME280;47007;49.252;8.904;2023-07-31T00:03:01;99641.72;;;19.24;100.00
10638;BME280;47007;49.252;8.904;2023-07-31T00:03:45;99683.09;;;19.57;100.00
10638;BME280;47007;49.252;8.904;2023-07-31T00:04:27;99685.78;;;19.57;100.00
10638;BME280;47007;49.252;8.904;2023-07-31T00:05:09;99587.31;;;19.00;100.00
10638;BME280;47007;49.252;8.904;2023-07-31T00:05:51;99692.38;;;19.66;100.00
10638;BME280;47007;49.252;8.904;2023-07-31T00:06:32;99687.00;;;19.66;100.00
10638;BME280;47007;49.252;8.904;2023-07-31T00:07:14;99718.13;;;19.79;100.00
10638;BME280;47007;49.252;8.904;2023-07-31T00:07:56;99664.75;;;19.37;100.00
10638;BME280;47007;49.252;8.904;2023-07-31T00:08:38;99636.00;;;19.21;100.00
10638;BME280;47007;49.252;8.904;2023-07-31T00:09:19;99681.97;;;19.53;100.00
10638;BME280;47007;49.252;8.904;2023-07-31T00:10:01;99678.09;;;19.32;100.00
10638;BME280;47007;49.252;8.904;2023-07-31T00:10:44;99662.06;;;19.20;100.00
10638;BME280;47007;49.252;8.904;2023-07-31T00:11:25;99693.03;;;19.40;100.00
10638;BME280;47007;49.252;8.904;2023-07-31T00:12:07;99601.19;;;18.81;100.00
10638;BME280;47007;49.252;8.904;2023-07-31T00:12:49;99546.22;;;18.55;100.00
10638;BME280;47007;49.252;8.904;2023-07-31T00:13:31;99675.41;;;19.32;100.00
10638;BME280;47007;49.252;8.904;2023-07-31T00:14:12;99596.88;;;18.80;100.00
10638;BME280;47007;49.252;8.904;2023-07-31T00:14:54;99691.22;;;19.45;100.00
10638;BME280;47007;49.252;8.904;2023-07-31T00:15:36;99582.97;;;18.83;100.00
10638;BME280;47007;49.252;8.904;2023-07-31T00:16:18;99623.63;;;19.03;100.00
10638;BME280;47007;49.252;8.904;2023-07-31T00:17:00;99635.41;;;19.19;100.00
10638;BME280;47007;49.252;8.904;2023-07-31T00:17:41;99659.28;;;19.32;100.00
10638;BME280;47007;49.252;8.904;2023-07-31T00:18:23;99692.47;;;19.54;100.00
10638;BME280;47007;49.252;8.904;2023-07-31T00:19:05;99671.91;;;19.31;100.00
10638;BME280;47007;49.252;8.904;2023-07-31T00:19:46;99583.78;;;18.83;100.00
10638;BME280;47007;49.252;8.904;2023-07-31T00:20:30;99648.38;;;19.22;100.00
10638;BME280;47007;49.252;8.904;2023-07-31T00:21:12;99639.56;;;19.10;100.00
10638;BME280;47007;49.252;8.904;2023-07-31T00:21:53;99558.00;;;18.65;100.00
10638;BME280;47007;49.252;8.904;2023-07-31T00:22:35;99624.09;;;19.00;100.00
10638;BME280;47007;49.252;8.904;2023-07-31T00:23:17;99717.16;;;19.51;100.00
10638;BME280;47007;49.252;8.904;2023-07-31T00:23:59;99586.66;;;18.77;100.00
10638;BME280;47007;49.252;8.904;2023-07-31T00:24:41;99641.34;;;19.04;100.00
10638;BME280;47007;49.252;8.904;2023-07-31T00:25:22;99572.47;;;18.64;100.00
10638;BME280;47007;49.252;8.904;2023-07-31T00:26:04;99700.81;;;19.41;100.00
10638;BME280;47007;49.252;8.904;2023-07-31T00:26:46;99719.41;;;19.43;100.00
10638;BME280;47007;49.252;8.904;2023-07-31T00:27:27;99659.09;;;19.05;100.00
10638;BME280;47007;49.252;8.904;2023-07-31T00:28:09;99671.22;;;19.08;100.00
10638;BME280;47007;49.252;8.904;2023-07-31T00:28:51;99670.41;;;19.07;100.00
10638;BME280;47007;49.252;8.904;2023-07-31T00:29:33;99620.16;;;18.74;100.00
10638;BME280;47007;49.252;8.904;2023-07-31T00:30:14;99718.16;;;19.33;100.00
10638;BME280;47007;49.252;8.904;2023-07-31T00:30:56;99631.41;;;18.88;100.00
10638;BME280;47007;49.252;8.904;2023-07-31T00:31:40;99673.91;;;19.08;100.00
10638;BME280;47007;49.252;8.904;2023-07-31T00:32:21;99551.91;;;18.42;100.00
10638;BME280;47007;49.252;8.904;2023-07-31T00:33:03;99647.06;;;18.91;100.00
10638;BME280;47007;49.252;8.904;2023-07-31T00:33:45;99692.09;;;19.17;100.00
10638;BME280;47007;49.252;8.904;2023-07-31T00:34:27;99653.47;;;18.90;100.00
10638;BME280;47007;49.252;8.904;2023-07-31T00:35:10;99651.03;;;18.88;100.00
10638;BME280;47007;49.252;8.904;2023-07-31T00:35:52;99611.69;;;18.65;100.00
10638;BME280;47007;49.252;8.904;2023-07-31T00:36:33;99674.66;;;19.20;100.00
10638;BME280;47007;49.252;8.904;2023-07-31T00:37:15;99704.72;;;19.33;100.00
10638;BME280;47007;49.252;8.904;2023-07-31T00:37:58;99611.94;;;18.81;100.00
10638;BME280;47007;49.252;8.904;2023-07-31T00:38:39;99627.50;;;18.95;100.00
10638;BME280;47007;49.252;8.904;2023-07-31T00:39:21;99648.69;;;19.09;100.00
10638;BME280;47007;49.252;8.904;2023-07-31T00:40:03;99572.78;;;18.68;100.00
10638;BME280;47007;49.252;8.904;2023-07-31T00:40:45;99675.59;;;19.25;100.00
10638;BME280;47007;49.252;8.904;2023-07-31T00:41:26;99607.16;;;18.83;100.00
10638;BME280;47007;49.252;8.904;2023-07-31T00:42:08;99590.38;;;18.76;100.00
10638;BME280;47007;49.252;8.904;2023-07-31T00:42:50;99583.22;;;18.81;100.00
10638;BME280;47007;49.252;8.904;2023-07-31T00:43:31;99615.13;;;18.94;100.00
10638;BME280;47007;49.252;8.904;2023-07-31T00:44:13;99668.16;;;19.32;100.00
10638;BME280;47007;49.252;8.904;2023-07-31T00:44:55;99611.41;;;18.95;100.00
10638;BME280;47007;49.252;8.904;2023-07-31T00:45:37;99619.13;;;19.09;100.00
10638;BME280;47007;49.252;8.904;2023-07-31T00:46:19;99653.44;;;19.35;100.00
10638;BME280;47007;49.252;8.904;2023-07-31T00:47:01;99667.09;;;19.33;100.00
10638;BME280;47007;49.252;8.904;2023-07-31T00:47:44;99691.34;;;19.50;100.00
10638;BME280;47007;49.252;8.904;2023-07-31T00:48:26;99670.19;;;19.42;100.00
10638;BME280;47007;49.252;8.904;2023-07-31T00:49:10;99664.69;;;19.49;100.00
10638;BME280;47007;49.252;8.904;2023-07-31T00:49:52;99705.19;;;19.76;100.00
10638;BME280;47007;49.252;8.904;2023-07-31T00:50:35;99659.16;;;19.38;100.00
10638;BME280;47007;49.252;8.904;2023-07-31T00:51:17;99589.34;;;19.10;100.00
10638;BME280;47007;49.252;8.904;2023-07-31T00:51:59;99686.75;;;19.67;100.00
10638;BME280;47007;49.252;8.904;2023-07-31T00:52:41;99642.84;;;19.45;100.00
10638;BME280;47007;49.252;8.904;2023-07-31T00:53:23;99638.16;;;19.52;100.00
10638;BME280;47007;49.252;8.904;2023-07-31T00:54:06;99705.97;;;19.93;100.00
10638;BME280;47007;49.252;8.904;2023-07-31T00:54:49;99649.88;;;19.63;100.00
10638;BME280;47007;49.252;8.904;2023-07-31T00:55:31;99621.75;;;19.54;100.00
10638;BME280;47007;49.252;8.904;2023-07-31T00:56:15;99651.66;;;19.74;100.00
10638;BME280;47007;49.252;8.904;2023-07-31T00:56:57;99679.88;;;19.93;100.00
10638;BME280;47007;49.252;8.904;2023-07-31T00:57:40;99664.34;;;19.79;100.00
10638;BME280;47007;49.252;8.904;2023-07-31T00:58:22;99582.66;;;19.29;100.00
10638;BME280;47007;49.252;8.904;2023-07-31T00:59:06;99567.84;;;19.10;100.00
10638;BME280;47007;49.252;8.904;2023-07-31T00:59:47;99701.41;;;19.93;100.00
10638;BME280;47007;49.252;8.904;2023-07-31T01:00:29;99583.41;;;19.25;100.00
10638;BME280;47007;49.252;8.904;2023-07-31T01:01:11;99585.09;;;19.31;100.00
10638;BME280;47007;49.252;8.904;2023-07-31T01:01:53;99598.13;;;19.39;100.00
10638;BME280;47007;49.252;8.904;2023-07-31T01:02:36;99641.03;;;19.67;100.00
10638;BME280;47007;49.252;8.904;2023-07-31T01:03:18;99639.94;;;19.63;100.00
10638;BME280;47007;49.252;8.904;2023-07-31T01:04:00;99658.31;;;19.71;100.00
10638;BME280;47007;49.252;8.904;2023-07-31T01:04:42;99696.34;;;19.97;100.00
10638;BME280;47007;49.252;8.904;2023-07-31T01:05:36;99636.19;;;19.64;100.00
10638;BME280;47007;49.252;8.904;2023-07-31T01:08:19;99627.84;;;19.66;100.00
10638;BME280;47007;49.252;8.904;2023-07-31T01:09:19;99684.34;;;20.04;100.00
10638;BME280;47007;49.252;8.904;2023-07-31T01:11:00;99657.84;;;19.75;100.00
10638;BME280;47007;49.252;8.904;2023-07-31T01:11:57;99589.50;;;19.37;100.00
10638;BME280;47007;49.252;8.904;2023-07-31T01:12:42;99629.88;;;19.76;100.00
10638;BME280;47007;49.252;8.904;2023-07-31T01:13:26;99690.38;;;20.12;100.00
10638;BME280;47007;49.252;8.904;2023-07-31T01:14:09;99627.94;;;19.71;100.00
10638;BME280;47007;49.252;8.904;2023-07-31T01:15:08;99654.56;;;19.89;100.00
10638;BME280;47007;49.252;8.904;2023-07-31T01:15:53;99569.38;;;19.40;100.00
10638;BME280;47007;49.252;8.904;2023-07-31T01:16:35;99630.38;;;19.72;100.00
10638;BME280;47007;49.252;8.904;2023-07-31T01:17:17;99659.75;;;19.96;100.00
10638;BME280;47007;49.252;8.904;2023-07-31T01:17:59;99562.25;;;19.28;100.00
10638;BME280;47007;49.252;8.904;2023-07-31T01:18:40;99627.34;;;19.69;100.00
10638;BME280;47007;49.252;8.904;2023-07-31T01:19:24;99651.59;;;19.91;100.00
10638;BME280;47007;49.252;8.904;2023-07-31T01:20:21;99685.31;;;20.15;100.00
10638;BME280;47007;49.252;8.904;2023-07-31T01:24:37;99623.31;;;19.50;100.00
10638;BME280;47007;49.252;8.904;2023-07-31T01:26:30;99678.50;;;19.91;100.00
10638;BME280;47007;49.252;8.904;2023-07-31T01:27:23;99662.53;;;19.84;100.00
10638;BME280;47007;49.252;8.904;2023-07-31T01:28:10;99676.69;;;19.96;100.00
10638;BME280;47007;49.252;8.904;2023-07-31T01:30:15;99666.97;;;19.73;100.00
10638;BME280;47007;49.252;8.904;2023-07-31T01:31:00;99678.91;;;19.99;100.00
10638;BME280;47007;49.252;8.904;2023-07-31T01:31:44;99631.91;;;19.68;100.00
10638;BME280;47007;49.252;8.904;2023-07-31T01:32:31;99604.31;;;19.56;100.00
10638;BME280;47007;49.252;8.904;2023-07-31T01:33:15;99654.03;;;19.92;100.00
10638;BME280;47007;49.252;8.904;2023-07-31T01:34:00;99660.75;;;19.90;100.00
10638;BME280;47007;49.252;8.904;2023-07-31T01:34:42;99655.44;;;19.95;100.00
10638;BME280;47007;49.252;8.904;2023-07-31T01:35:25;99677.16;;;20.10;100.00
10638;BME280;47007;49.252;8.904;2023-07-31T01:36:07;99674.72;;;20.08;100.00
10638;BME280;47007;49.252;8.904;2023-07-31T01:36:49;99685.84;;;20.17;100.00
10638;BME280;47007;49.252;8.904;2023-07-31T01:37:31;99625.88;;;19.78;100.00
10638;BME280;47007;49.252;8.904;2023-07-31T01:38:13;99666.69;;;19.92;100.00
10638;BME280;47007;49.252;8.904;2023-07-31T01:38:59;99675.34;;;20.16;100.00
10638;BME280;47007;49.252;8.904;2023-07-31T01:39:41;99671.47;;;20.06;100.00
10638;BME280;47007;49.252;8.904;2023-07-31T01:40:23;99660.56;;;19.96;100.00
10638;BME280;47007;49.252;8.904;2023-07-31T01:41:04;99621.25;;;19.73;100.00
10638;BME280;47007;49.252;8.904;2023-07-31T01:41:46;99590.97;;;19.61;100.00
10638;BME280;47007;49.252;8.904;2023-07-31T01:42:28;99666.88;;;20.07;100.00
10638;BME280;47007;49.252;8.904;2023-07-31T01:43:09;99594.84;;;19.70;100.00
10638;BME280;47007;49.252;8.904;2023-07-31T01:43:51;99642.63;;;20.02;100.00
10638;BME280;47007;49.252;8.904;2023-07-31T01:44:33;99634.72;;;19.95;100.00
10638;BME280;47007;49.252;8.904;2023-07-31T01:45:15;99527.13;;;19.35;100.00
10638;BME280;47007;49.252;8.904;2023-07-31T01:45:56;99570.75;;;19.59;100.00
10638;BME280;47007;49.252;8.904;2023-07-31T01:46:38;99648.94;;;20.13;100.00
10638;BME280;47007;49.252;8.904;2023-07-31T01:47:20;99562.06;;;19.52;100.00
10638;BME280;47007;49.252;8.904;2023-07-31T01:48:02;99642.69;;;20.07;100.00
10638;BME280;47007;49.252;8.904;2023-07-31T01:48:44;99602.06;;;19.87;100.00
10638;BME280;47007;49.252;8.904;2023-07-31T01:49:26;99602.00;;;19.82;100.00
10638;BME280;47007;49.252;8.904;2023-07-31T01:50:08;99656.63;;;20.04;100.00
10638;BME280;47007;49.252;8.904;2023-07-31T01:50:50;99626.97;;;19.77;100.00
10638;BME280;47007;49.252;8.904;2023-07-31T01:51:32;99657.97;;;19.85;100.00
10638;BME280;47007;49.252;8.904;2023-07-31T01:52:16;99548.13;;;19.21;100.00
10638;BME280;47007;49.252;8.904;2023-07-31T01:52:58;99553.50;;;19.21;100.00
10638;BME280;47007;49.252;8.904;2023-07-31T01:53:40;99587.63;;;19.37;100.00
10638;BME280;47007;49.252;8.904;2023-07-31T01:54:22;99516.00;;;18.93;100.00
10638;BME280;47007;49.252;8.904;2023-07-31T01:55:04;99520.06;;;18.95;100.00
10638;BME280;47007;49.252;8.904;2023-07-31T01:55:45;99558.31;;;19.19;100.00
10638;BME280;47007;49.252;8.904;2023-07-31T01:56:27;99592.13;;;19.49;100.00
10638;BME280;47007;49.252;8.904;2023-07-31T01:57:09;99554.41;;;19.27;100.00
10638;BME280;47007;49.252;8.904;2023-07-31T01:57:51;99651.97;;;19.78;100.00
10638;BME280;47007;49.252;8.904;2023-07-31T01:58:33;99634.38;;;19.70;100.00
10638;BME280;47007;49.252;8.904;2023-07-31T01:59:15;99608.00;;;19.50;100.00
10638;BME280;47007;49.252;8.904;2023-07-31T01:59:57;99592.69;;;19.34;100.00
10638;BME280;47007;49.252;8.904;2023-07-31T02:00:39;99617.34;;;19.48;100.00
10638;BME280;47007;49.252;8.904;2023-07-31T02:01:20;99536.34;;;19.06;100.00
10638;BME280;47007;49.252;8.904;2023-07-31T02:02:02;99599.81;;;19.45;100.00
10638;BME280;47007;49.252;8.904;2023-07-31T02:02:44;99621.25;;;19.57;100.00
10638;BME280;47007;49.252;8.904;2023-07-31T02:03:26;99596.56;;;19.43;100.00
10638;BME280;47007;49.252;8.904;2023-07-31T02:04:08;99601.06;;;19.54;100.00
10638;BME280;47007;49.252;8.904;2023-07-31T02:04:50;99554.41;;;19.27;100.00
10638;BME280;47007;49.252;8.904;2023-07-31T02:05:31;99657.75;;;19.86;100.00
10638;BME280;47007;49.252;8.904;2023-07-31T02:06:13;99595.44;;;19.56;100.00
10638;BME280;47007;49.252;8.904;2023-07-31T02:06:55;99599.81;;;19.45;100.00
10638;BME280;47007;49.252;8.904;2023-07-31T02:07:37;99574.34;;;19.31;100.00
10638;BME280;47007;49.252;8.904;2023-07-31T02:08:18;99517.16;;;18.97;100.00
10638;BME280;47007;49.252;8.904;2023-07-31T02:09:00;99564.69;;;19.13;100.00
10638;BME280;47007;49.252;8.904;2023-07-31T02:09:42;99620.63;;;19.50;100.00
10638;BME280;47007;49.252;8.904;2023-07-31T02:10:23;99587.97;;;19.24;100.00
10638;BME280;47007;49.252;8.904;2023-07-31T02:11:06;99597.91;;;19.41;100.00
10638;BME280;47007;49.252;8.904;2023-07-31T02:11:47;99636.66;;;19.61;100.00
10638;BME280;47007;49.252;8.904;2023-07-31T02:12:29;99648.97;;;19.74;100.00
10638;BME280;47007;49.252;8.904;2023-07-31T02:13:13;99573.28;;;19.32;100.00
10638;BME280;47007;49.252;8.904;2023-07-31T02:13:55;99491.69;;;18.83;100.00
10638;BME280;47007;49.252;8.904;2023-07-31T02:14:36;99507.78;;;18.99;100.00
10638;BME280;47007;49.252;8.904;2023-07-31T02:15:18;99568.66;;;19.27;100.00
10638;BME280;47007;49.252;8.904;2023-07-31T02:16:00;99623.28;;;19.66;100.00
10638;BME280;47007;49.252;8.904;2023-07-31T02:16:42;99575.59;;;19.40;100.00
10638;BME280;47007;49.252;8.904;2023-07-31T02:17:24;99578.91;;;19.30;100.00
10638;BME280;47007;49.252;8.904;2023-07-31T02:18:06;99511.19;;;18.95;100.00
10638;BME280;47007;49.252;8.904;2023-07-31T02:18:49;99555.88;;;19.18;100.00
10638;BME280;47007;49.252;8.904;2023-07-31T02:19:31;99631.91;;;19.68;100.00
10638;BME280;47007;49.252;8.904;2023-07-31T02:20:13;99578.75;;;19.37;100.00
10638;BME280;47007;49.252;8.904;2023-07-31T02:20:54;99580.13;;;19.40;100.00
10638;BME280;47007;49.252;8.904;2023-07-31T02:21:36;99546.59;;;19.25;100.00
10638;BME280;47007;49.252;8.904;2023-07-31T02:22:18;99596.81;;;19.58;100.00
10638;BME280;47007;49.252;8.904;2023-07-31T02:23:00;99599.50;;;19.58;100.00
10638;BME280;47007;49.252;8.904;2023-07-31T02:23:41;99594.09;;;19.53;100.00
10638;BME280;47007;49.252;8.904;2023-07-31T02:24:25;99631.56;;;19.82;100.00
10638;BME280;47007;49.252;8.904;2023-07-31T02:25:07;99547.09;;;19.22;100.00
10638;BME280;47007;49.252;8.904;2023-07-31T02:25:48;99605.56;;;19.65;100.00
10638;BME280;47007;49.252;8.904;2023-07-31T02:26:30;99575.63;;;19.45;100.00
10638;BME280;47007;49.252;8.904;2023-07-31T02:27:12;99617.50;;;19.75;100.00
10638;BME280;47007;49.252;8.904;2023-07-31T02:27:53;99599.50;;;19.58;100.00
10638;BME280;47007;49.252;8.904;2023-07-31T02:28:35;99590.63;;;19.58;100.00
10638;BME280;47007;49.252;8.904;2023-07-31T02:29:17;99610.75;;;19.72;100.00
10638;BME280;47007;49.252;8.904;2023-07-31T02:29:59;99625.47;;;19.86;100.00
10638;BME280;47007;49.252;8.904;2023-07-31T02:30:44;99562.19;;;19.45;100.00
10638;BME280;47007;49.252;8.904;2023-07-31T02:31:26;99534.69;;;19.38;100.00
10638;BME280;47007;49.252;8.904;2023-07-31T02:32:08;99578.97;;;19.69;100.00
10638;BME280;47007;49.252;8.904;2023-07-31T02:32:50;99546.44;;;19.49;100.00
10638;BME280;47007;49.252;8.904;2023-07-31T02:33:31;99553.19;;;19.51;100.00
10638;BME280;47007;49.252;8.904;2023-07-31T02:34:13;99525.09;;;19.25;100.00
10638;BME280;47007;49.252;8.904;2023-07-31T02:34:56;99504.34;;;19.21;100.00
10638;BME280;47007;49.252;8.904;2023-07-31T02:35:37;99516.56;;;19.28;100.00
10638;BME280;47007;49.252;8.904;2023-07-31T02:36:19;99603.19;;;19.91;99.91
10638;BME280;47007;49.252;8.904;2023-07-31T02:37:01;99481.47;;;19.18;100.00
10638;BME280;47007;49.252;8.904;2023-07-31T02:37:42;99544.94;;;19.58;98.77
10638;BME280;47007;49.252;8.904;2023-07-31T02:38:24;99465.53;;;19.12;99.10
10638;BME280;47007;49.252;8.904;2023-07-31T02:39:06;99617.88;;;20.05;99.21
10638;BME280;47007;49.252;8.904;2023-07-31T02:39:47;99593.56;;;19.95;99.62
10638;BME280;47007;49.252;8.904;2023-07-31T02:40:29;99586.88;;;19.97;99.21
10638;BME280;47007;49.252;8.904;2023-07-31T02:41:11;99573.53;;;19.86;98.47
10638;BME280;47007;49.252;8.904;2023-07-31T02:41:53;99585.38;;;19.85;98.34
10638;BME280;47007;49.252;8.904;2023-07-31T02:42:34;99605.22;;;20.00;97.83
10638;BME280;47007;49.252;8.904;2023-07-31T02:43:16;99621.09;;;20.02;96.42
10638;BME280;47007;49.252;8.904;2023-07-31T02:43:58;99516.63;;;19.33;97.49
10638;BME280;47007;49.252;8.904;2023-07-31T02:44:41;99560.38;;;19.67;97.15
10638;BME280;47007;49.252;8.904;2023-07-31T02:45:22;99597.50;;;19.87;97.81
10638;BME280;47007;49.252;8.904;2023-07-31T02:46:04;99596.28;;;19.78;98.03
10638;BME280;47007;49.252;8.904;2023-07-31T02:46:46;99570.59;;;19.65;98.52
10638;BME280;47007;49.252;8.904;2023-07-31T02:47:27;99568.31;;;19.57;98.20
10638;BME280;47007;49.252;8.904;2023-07-31T02:48:09;99595.50;;;19.78;98.69
10638;BME280;47007;49.252;8.904;2023-07-31T02:48:51;99521.25;;;19.38;98.76
10638;BME280;47007;49.252;8.904;2023-07-31T02:49:34;99573.53;;;19.64;98.48
10638;BME280;47007;49.252;8.904;2023-07-31T02:50:15;99631.22;;;19.95;98.90
10638;BME280;47007;49.252;8.904;2023-07-31T02:50:57;99593.88;;;19.77;98.38
10638;BME280;47007;49.252;8.904;2023-07-31T02:51:39;99561.00;;;19.53;97.34
10638;BME280;47007;49.252;8.904;2023-07-31T02:52:21;99463.34;;;18.92;96.44
10638;BME280;47007;49.252;8.904;2023-07-31T02:53:02;99557.31;;;19.42;97.68
10638;BME280;47007;49.252;8.904;2023-07-31T02:53:44;99593.41;;;19.63;97.89
10638;BME280;47007;49.252;8.904;2023-07-31T02:54:26;99551.38;;;19.40;98.46
10638;BME280;47007;49.252;8.904;2023-07-31T02:55:07;99558.44;;;19.46;98.36
10638;BME280;47007;49.252;8.904;2023-07-31T02:55:49;99634.47;;;19.97;98.27
10638;BME280;47007;49.252;8.904;2023-07-31T02:56:31;99566.94;;;19.55;97.94
10638;BME280;47007;49.252;8.904;2023-07-31T02:57:13;99622.66;;;19.98;98.23
10638;BME280;47007;49.252;8.904;2023-07-31T02:57:54;99550.00;;;19.37;98.64
10638;BME280;47007;49.252;8.904;2023-07-31T02:58:36;99604.53;;;19.71;97.96
10638;BME280;47007;49.252;8.904;2023-07-31T02:59:18;99565.94;;;19.44;97.26
10638;BME280;47007;49.252;8.904;2023-07-31T03:00:00;99562.19;;;19.45;97.93
10638;BME280;47007;49.252;8.904;2023-07-31T03:00:43;99634.66;;;19.90;98.24
10638;BME280;47007;49.252;8.904;2023-07-31T03:01:25;99585.59;;;19.61;98.48
10638;BME280;47007;49.252;8.904;2023-07-31T03:02:07;99489.00;;;18.99;98.06
10638;BME280;47007;49.252;8.904;2023-07-31T03:02:49;99483.22;;;18.91;98.31
10638;BME280;47007;49.252;8.904;2023-07-31T03:03:31;99553.66;;;19.31;98.53
10638;BME280;47007;49.252;8.904;2023-07-31T03:04:13;99577.03;;;19.48;99.00
10638;BME280;47007;49.252;8.904;2023-07-31T03:04:58;99506.50;;;19.02;99.16
10638;BME280;47007;49.252;8.904;2023-07-31T03:05:41;99596.78;;;19.53;98.36
10638;BME280;47007;49.252;8.904;2023-07-31T03:06:24;99589.88;;;19.46;99.01
10638;BME280;47007;49.252;8.904;2023-07-31T03:07:06;99574.25;;;19.43;99.33
10638;BME280;47007;49.252;8.904;2023-07-31T03:07:48;99588.84;;;19.47;99.54
10638;BME280;47007;49.252;8.904;2023-07-31T03:08:29;99512.34;;;18.99;99.48
10638;BME280;47007;49.252;8.904;2023-07-31T03:09:11;99572.81;;;19.35;100.00
10638;BME280;47007;49.252;8.904;2023-07-31T03:09:53;99614.59;;;19.59;99.21
10638;BME280;47007;49.252;8.904;2023-07-31T03:10:35;99532.34;;;19.08;99.93
10638;BME280;47007;49.252;8.904;2023-07-31T03:11:16;99617.53;;;19.58;99.91
10638;BME280;47007;49.252;8.904;2023-07-31T03:11:58;99609.69;;;19.56;99.51
10638;BME280;47007;49.252;8.904;2023-07-31T03:12:40;99598.84;;;19.18;100.00
10638;BME280;47007;49.252;8.904;2023-07-31T03:13:22;99552.63;;;18.99;100.00
10638;BME280;47007;49.252;8.904;2023-07-31T03:14:05;99627.06;;;19.49;100.00
10638;BME280;47007;49.252;8.904;2023-07-31T03:14:47;99567.13;;;19.15;100.00
10638;BME280;47007;49.252;8.904;2023-07-31T03:15:29;99593.66;;;19.28;100.00
10638;BME280;47007;49.252;8.904;2023-07-31T03:16:11;99560.63;;;19.11;100.00
10638;BME280;47007;49.252;8.904;2023-07-31T03:16:53;99529.38;;;18.88;100.00
10638;BME280;47007;49.252;8.904;2023-07-31T03:17:35;99568.09;;;19.09;100.00
10638;BME280;47007;49.252;8.904;2023-07-31T03:18:16;99637.63;;;19.55;100.00
10638;BME280;47007;49.252;8.904;2023-07-31T03:18:58;99546.44;;;18.98;100.00
10638;BME280;47007;49.252;8.904;2023-07-31T03:19:40;99620.03;;;19.48;100.00
10638;BME280;47007;49.252;8.904;2023-07-31T03:20:21;99560.94;;;19.14;100.00
10638;BME280;47007;49.252;8.904;2023-07-31T03:21:04;99553.03;;;19.08;100.00
10638;BME280;47007;49.252;8.904;2023-07-31T03:21:46;99631.59;;;19.48;100.00
10638;BME280;47007;49.252;8.904;2023-07-31T03:22:28;99527.63;;;18.82;100.00
10638;BME280;47007;49.252;8.904;2023-07-31T03:23:10;99640.31;;;19.55;100.00
10638;BME280;47007;49.252;8.904;2023-07-31T03:23:52;99615.03;;;19.51;100.00
10638;BME280;47007;49.252;8.904;2023-07-31T03:24:33;99533.13;;;19.04;100.00
10638;BME280;47007;49.252;8.904;2023-07-31T03:25:15;99601.69;;;19.45;100.00
10638;BME280;47007;49.252;8.904;2023-07-31T03:26:01;99624.09;;;19.67;100.00
10638;BME280;47007;49.252;8.904;2023-07-31T03:26:45;99589.56;;;19.42;100.00
10638;BME280;47007;49.252;8.904;2023-07-31T03:27:26;99571.03;;;19.24;100.00
10638;BME280;47007;49.252;8.904;2023-07-31T03:28:09;99624.13;;;19.50;100.00
10638;BME280;47007;49.252;8.904;2023-07-31T03:28:51;99619.81;;;19.49;100.00
10638;BME280;47007;49.252;8.904;2023-07-31T03:29:33;99621.19;;;19.35;100.00
10638;BME280;47007;49.252;8.904;2023-07-31T03:30:15;99617.00;;;19.44;100.00
10638;BME280;47007;49.252;8.904;2023-07-31T03:30:56;99622.63;;;19.43;100.00
10638;BME280;47007;49.252;8.904;2023-07-31T03:31:38;99540.44;;;18.91;100.00
10638;BME280;47007;49.252;8.904;2023-07-31T03:32:20;99521.63;;;18.75;100.00
10638;BME280;47007;49.252;8.904;2023-07-31T03:33:02;99592.53;;;19.24;100.00
10638;BME280;47007;49.252;8.904;2023-07-31T03:33:44;99469.19;;;18.39;100.00
10638;BME280;47007;49.252;8.904;2023-07-31T03:34:25;99612.53;;;19.33;100.00
10638;BME280;47007;49.252;8.904;2023-07-31T03:35:07;99544.66;;;18.87;100.00
10638;BME280;47007;49.252;8.904;2023-07-31T03:35:49;99569.97;;;19.08;100.00
10638;BME280;47007;49.252;8.904;2023-07-31T03:36:30;99620.63;;;19.50;100.00
10638;BME280;47007;49.252;8.904;2023-07-31T03:37:13;99528.38;;;18.94;100.00
10638;BME280;47007;49.252;8.904;2023-07-31T03:37:54;99555.00;;;19.12;100.00
10638;BME280;47007;49.252;8.904;2023-07-31T03:38:37;99621.75;;;19.54;100.00
10638;BME280;47007;49.252;8.904;2023-07-31T03:39:18;99519.44;;;18.88;100.00
10638;BME280;47007;49.252;8.904;2023-07-31T03:40:00;99508.84;;;18.82;100.00
10638;BME280;47007;49.252;8.904;2023-07-31T03:40:44;99577.63;;;19.16;100.00
10638;BME280;47007;49.252;8.904;2023-07-31T03:41:26;99551.81;;;18.98;100.00
10638;BME280;47007;49.252;8.904;2023-07-31T03:42:08;99603.84;;;19.26;100.00
10638;BME280;47007;49.252;8.904;2023-07-31T03:42:49;99591.06;;;19.16;100.00
10638;BME280;47007;49.252;8.904;2023-07-31T03:43:31;99631.50;;;19.43;100.00
10638;BME280;47007;49.252;8.904;2023-07-31T03:44:15;99526.53;;;18.78;100.00
10638;BME280;47007;49.252;8.904;2023-07-31T03:44:56;99527.81;;;18.75;100.00
10638;BME280;47007;49.252;8.904;2023-07-31T03:45:38;99583.56;;;19.01;100.00
10638;BME280;47007;49.252;8.904;2023-07-31T03:46:20;99612.97;;;19.25;100.00
10638;BME280;47007;49.252;8.904;2023-07-31T03:47:03;99608.16;;;19.27;100.00
10638;BME280;47007;49.252;8.904;2023-07-31T03:47:44;99563.88;;;18.96;100.00
10638;BME280;47007;49.252;8.904;2023-07-31T03:48:26;99603.34;;;19.12;100.00
10638;BME280;47007;49.252;8.904;2023-07-31T03:49:08;99537.00;;;18.79;100.00
10638;BME280;47007;49.252;8.904;2023-07-31T03:49:50;99562.72;;;18.92;100.00
10638;BME280;47007;49.252;8.904;2023-07-31T03:50:32;99595.94;;;19.19;100.00
10638;BME280;47007;49.252;8.904;2023-07-31T03:51:15;99577.63;;;19.16;100.00